sensor_id;sensor_type;location;lat;lon;timestamp;pressure;altitude;pressure_sealevel;temperature;humidity
36380;BME280;22411;53.016;18.632;2023-05-10T00:00:08;101172.16;;;9.36;100.00
36380;BME280;22411;53.016;18.632;2023-05-10T00:03:00;101171.19;;;9.21;100.00
36380;BME280;22411;53.016;18.632;2023-05-10T00:05:31;101168.47;;;9.24;100.00
36380;BME280;22411;53.016;18.632;2023-05-10T00:08:04;101171.19;;;9.21;100.00
36380;BME280;22411;53.016;18.632;2023-05-10T00:10:36;101160.75;;;9.23;100.00
36380;BME280;22411;53.016;18.632;2023-05-10T00:13:12;101165.41;;;9.16;100.00
36380;BME280;22411;53.016;18.632;2023-05-10T00:15:43;101162.00;;;9.15;100.00
36380;BME280;22411;53.016;18.632;2023-05-10T00:18:09;101163.00;;;9.13;100.00
36380;BME280;22411;53.016;18.632;2023-05-10T00:20:35;101164.78;;;9.12;100.00
36380;BME280;22411;53.016;18.632;2023-05-10T00:23:06;101165.66;;;9.11;100.00
36380;BME280;22411;53.016;18.632;2023-05-10T00:25:32;101167.50;;;9.09;100.00
36380;BME280;22411;53.016;18.632;2023-05-10T00:27:58;101157.25;;;9.08;100.00
36380;BME280;22411;53.016;18.632;2023-05-10T00:30:27;101160.16;;;9.02;100.00
36380;BME280;22411;53.016;18.632;2023-05-10T00:32:53;101160.22;;;9.00;100.00
36380;BME280;22411;53.016;18.632;2023-05-10T00:35:19;101165.38;;;9.00;100.00
36380;BME280;22411;53.016;18.632;2023-05-10T00:37:45;101155.34;;;8.94;100.00
36380;BME280;22411;53.016;18.632;2023-05-10T00:40:13;101157.94;;;8.94;100.00
36380;BME280;22411;53.016;18.632;2023-05-10T00:42:43;101155.22;;;8.97;100.00
36380;BME280;22411;53.016;18.632;2023-05-10T00:45:09;101153.69;;;8.93;100.00
36380;BME280;22411;53.016;18.632;2023-05-10T00:47:42;101159.78;;;8.92;100.00
36380;BME280;22411;53.016;18.632;2023-05-10T00:50:08;101155.81;;;8.85;100.00
36380;BME280;22411;53.016;18.632;2023-05-10T00:52:37;101155.16;;;8.81;100.00
36380;BME280;22411;53.016;18.632;2023-05-10T00:55:03;101155.06;;;8.83;100.00
36380;BME280;22411;53.016;18.632;2023-05-10T00:57:30;101148.28;;;8.80;100.00
36380;BME280;22411;53.016;18.632;2023-05-10T00:59:56;101153.53;;;8.79;100.00
36380;BME280;22411;53.016;18.632;2023-05-10T01:02:24;101148.59;;;8.74;100.00
36380;BME280;22411;53.016;18.632;2023-05-10T01:04:50;101147.78;;;8.74;100.00
36380;BME280;22411;53.016;18.632;2023-05-10T01:07:17;101146.84;;;8.75;100.00
36380;BME280;22411;53.016;18.632;2023-05-10T01:09:43;101142.59;;;8.74;100.00
36380;BME280;22411;53.016;18.632;2023-05-10T01:12:11;101136.69;;;8.72;100.00
36380;BME280;22411;53.016;18.632;2023-05-10T01:14:38;101137.06;;;8.64;100.00
36380;BME280;22411;53.016;18.632;2023-05-10T01:17:09;101134.56;;;8.62;100.00
36380;BME280;22411;53.016;18.632;2023-05-10T01:19:36;101128.69;;;8.59;100.00
36380;BME280;22411;53.016;18.632;2023-05-10T01:36:05;101129.63;;;8.41;100.00
36380;BME280;22411;53.016;18.632;2023-05-10T01:38:50;101119.44;;;8.37;100.00
36380;BME280;22411;53.016;18.632;2023-05-10T01:41:20;101117.69;;;8.38;100.00
36380;BME280;22411;53.016;18.632;2023-05-10T01:43:53;101121.38;;;8.32;100.00
36380;BME280;22411;53.016;18.632;2023-05-10T01:46:28;101119.94;;;8.27;100.00
36380;BME280;22411;53.016;18.632;2023-05-10T01:48:57;101115.69;;;8.26;100.00
36380;BME280;22411;53.016;18.632;2023-05-10T01:51:26;101110.69;;;8.23;100.00
36380;BME280;22411;53.016;18.632;2023-05-10T01:53:59;101115.06;;;8.21;100.00
36380;BME280;22411;53.016;18.632;2023-05-10T01:56:28;101118.66;;;8.18;100.00
36380;BME280;22411;53.016;18.632;2023-05-10T01:58:56;101114.53;;;8.14;100.00
36380;BME280;22411;53.016;18.632;2023-05-10T02:01:23;101106.78;;;8.14;100.00
36380;BME280;22411;53.016;18.632;2023-05-10T02:03:53;101111.97;;;8.14;100.00
36380;BME280;22411;53.016;18.632;2023-05-10T02:06:21;101098.56;;;8.06;100.00
36380;BME280;22411;53.016;18.632;2023-05-10T02:08:50;101104.44;;;8.09;100.00
36380;BME280;22411;53.016;18.632;2023-05-10T02:11:18;101101.16;;;8.06;100.00
36380;BME280;22411;53.016;18.632;2023-05-10T02:13:53;101091.75;;;8.05;100.00
36380;BME280;22411;53.016;18.632;2023-05-10T02:16:26;101096.28;;;8.00;100.00
36380;BME280;22411;53.016;18.632;2023-05-10T02:18:54;101091.66;;;7.89;100.00
36380;BME280;22411;53.016;18.632;2023-05-10T02:21:22;101094.22;;;7.89;100.00
36380;BME280;22411;53.016;18.632;2023-05-10T02:23:51;101086.69;;;7.84;100.00
36380;BME280;22411;53.016;18.632;2023-05-10T02:26:19;101089.38;;;7.83;100.00
36380;BME280;22411;53.016;18.632;2023-05-10T02:28:49;101088.31;;;7.87;100.00
36380;BME280;22411;53.016;18.632;2023-05-10T02:31:17;101087.47;;;7.86;100.00
36380;BME280;22411;53.016;18.632;2023-05-10T02:33:45;101088.22;;;7.89;100.00
36380;BME280;22411;53.016;18.632;2023-05-10T02:36:13;101087.53;;;7.85;100.00
36380;BME280;22411;53.016;18.632;2023-05-10T02:38:41;101097.41;;;7.77;100.00
36380;BME280;22411;53.016;18.632;2023-05-10T02:41:08;101094.28;;;7.70;100.00
36380;BME280;22411;53.016;18.632;2023-05-10T02:43:37;101092.31;;;7.75;100.00
36380;BME280;22411;53.016;18.632;2023-05-10T02:46:05;101091.69;;;7.70;100.00
36380;BME280;22411;53.016;18.632;2023-05-10T02:48:32;101090.84;;;7.70;100.00
36380;BME280;22411;53.016;18.632;2023-05-10T02:51:04;101088.50;;;7.65;100.00
36380;BME280;22411;53.016;18.632;2023-05-10T02:53:33;101089.47;;;7.63;100.00
36380;BME280;22411;53.016;18.632;2023-05-10T02:56:13;101086.97;;;7.61;100.00
36380;BME280;22411;53.016;18.632;2023-05-10T02:58:41;101094.53;;;7.64;100.00
36380;BME280;22411;53.016;18.632;2023-05-10T03:01:07;101090.38;;;7.62;100.00
36380;BME280;22411;53.016;18.632;2023-05-10T03:03:34;101085.34;;;7.58;100.00
36380;BME280;22411;53.016;18.632;2023-05-10T03:06:00;101087.94;;;7.58;100.00
36380;BME280;22411;53.016;18.632;2023-05-10T03:08:26;101088.00;;;7.57;100.00
36380;BME280;22411;53.016;18.632;2023-05-10T03:13:43;101094.78;;;7.59;100.00
36380;BME280;22411;53.016;18.632;2023-05-10T03:16:14;101089.69;;;7.58;100.00
36380;BME280;22411;53.016;18.632;2023-05-10T03:18:48;101092.63;;;7.50;100.00
36380;BME280;22411;53.016;18.632;2023-05-10T03:21:17;101099.38;;;7.53;100.00
36380;BME280;22411;53.016;18.632;2023-05-10T03:24:08;101092.47;;;7.53;100.00
36380;BME280;22411;53.016;18.632;2023-05-10T03:26:38;101099.25;;;7.56;100.00
36380;BME280;22411;53.016;18.632;2023-05-10T03:29:06;101090.66;;;7.55;100.00
36380;BME280;22411;53.016;18.632;2023-05-10T03:31:33;101091.50;;;7.56;100.00
36380;BME280;22411;53.016;18.632;2023-05-10T03:34:00;101092.34;;;7.56;100.00
36380;BME280;22411;53.016;18.632;2023-05-10T03:36:26;101093.25;;;7.55;100.00
36380;BME280;22411;53.016;18.632;2023-05-10T03:38:53;101086.34;;;7.56;100.00
36380;BME280;22411;53.016;18.632;2023-05-10T03:41:19;101090.38;;;7.62;100.00
36380;BME280;22411;53.016;18.632;2023-05-10T03:43:46;101089.53;;;7.61;100.00
36380;BME280;22411;53.016;18.632;2023-05-10T03:46:13;101084.47;;;7.59;100.00
36380;BME280;22411;53.016;18.632;2023-05-10T03:48:40;101087.78;;;7.62;100.00
36380;BME280;22411;53.016;18.632;2023-05-10T03:51:06;101088.41;;;7.67;100.00
36380;BME280;22411;53.016;18.632;2023-05-10T03:53:33;101085.69;;;7.70;100.00
36380;BME280;22411;53.016;18.632;2023-05-10T03:55:59;101086.47;;;7.72;100.00
36380;BME280;22411;53.016;18.632;2023-05-10T03:58:26;101089.88;;;7.72;100.00
36380;BME280;22411;53.016;18.632;2023-05-10T04:00:53;101080.91;;;7.79;100.00
36380;BME280;22411;53.016;18.632;2023-05-10T04:03:19;101082.66;;;7.79;100.00
36380;BME280;22411;53.016;18.632;2023-05-10T04:05:46;101081.69;;;7.81;100.00
36380;BME280;22411;53.016;18.632;2023-05-10T04:08:12;101074.72;;;7.83;100.00
36380;BME280;22411;53.016;18.632;2023-05-10T04:10:38;101088.16;;;7.90;100.00
36380;BME280;22411;53.016;18.632;2023-05-10T04:13:04;101084.59;;;7.93;100.00
36380;BME280;22411;53.016;18.632;2023-05-10T04:15:30;101077.69;;;7.93;100.00
36380;BME280;22411;53.016;18.632;2023-05-10T04:17:56;101074.81;;;7.99;100.00
36380;BME280;22411;53.016;18.632;2023-05-10T04:20:22;101078.91;;;8.03;100.00
36380;BME280;22411;53.016;18.632;2023-05-10T04:22:49;101082.34;;;8.04;100.00
36380;BME280;22411;53.016;18.632;2023-05-10T04:25:15;101075.19;;;8.09;100.00
36380;BME280;22411;53.016;18.632;2023-05-10T04:27:41;101074.28;;;8.10;100.00
36380;BME280;22411;53.016;18.632;2023-05-10T04:30:07;101077.25;;;8.20;100.00
36380;BME280;22411;53.016;18.632;2023-05-10T04:32:34;101073.63;;;8.24;100.00
36380;BME280;22411;53.016;18.632;2023-05-10T04:35:02;101078.47;;;8.30;100.00
36380;BME280;22411;53.016;18.632;2023-05-10T04:37:32;101078.81;;;8.41;100.00
36380;BME280;22411;53.016;18.632;2023-05-10T04:39:58;101077.56;;;8.48;100.00
36380;BME280;22411;53.016;18.632;2023-05-10T04:42:26;101070.59;;;8.50;100.00
36380;BME280;22411;53.016;18.632;2023-05-10T04:44:52;101070.38;;;8.55;100.00
36380;BME280;22411;53.016;18.632;2023-05-10T04:47:19;101075.13;;;8.62;100.00
36380;BME280;22411;53.016;18.632;2023-05-10T04:49:48;101075.41;;;8.74;100.00
36380;BME280;22411;53.016;18.632;2023-05-10T04:52:15;101073.34;;;8.80;100.00
36380;BME280;22411;53.016;18.632;2023-05-10T04:54:43;101080.78;;;8.86;100.00
36380;BME280;22411;53.016;18.632;2023-05-10T04:57:09;101075.34;;;8.91;100.00
36380;BME280;22411;53.016;18.632;2023-05-10T04:59:36;101075.06;;;8.97;100.00
36380;BME280;22411;53.016;18.632;2023-05-10T05:02:04;101070.53;;;9.01;100.00
36380;BME280;22411;53.016;18.632;2023-05-10T05:04:30;101076.84;;;9.12;100.00
36380;BME280;22411;53.016;18.632;2023-05-10T05:06:57;101071.25;;;9.20;100.00
36380;BME280;22411;53.016;18.632;2023-05-10T05:09:23;101071.09;;;9.23;100.00
36380;BME280;22411;53.016;18.632;2023-05-10T05:11:49;101070.66;;;9.31;100.00
36380;BME280;22411;53.016;18.632;2023-05-10T05:14:15;101073.75;;;9.37;100.00
36380;BME280;22411;53.016;18.632;2023-05-10T05:16:42;101077.59;;;9.46;100.00
36380;BME280;22411;53.016;18.632;2023-05-10T05:19:08;101079.69;;;9.55;100.00
36380;BME280;22411;53.016;18.632;2023-05-10T05:21:34;101079.84;;;9.68;100.00
36380;BME280;22411;53.016;18.632;2023-05-10T05:24:01;101069.22;;;9.73;100.00
36380;BME280;22411;53.016;18.632;2023-05-10T05:26:27;101071.47;;;9.79;100.00
36380;BME280;22411;53.016;18.632;2023-05-10T05:28:53;101077.91;;;9.87;100.00
36380;BME280;22411;53.016;18.632;2023-05-10T05:31:20;101073.94;;;9.96;100.00
36380;BME280;22411;53.016;18.632;2023-05-10T05:33:51;101075.59;;;10.13;96.64
36380;BME280;22411;53.016;18.632;2023-05-10T05:36:17;101073.28;;;10.22;99.02
36380;BME280;22411;53.016;18.632;2023-05-10T05:38:43;101080.56;;;10.32;95.68
36380;BME280;22411;53.016;18.632;2023-05-10T05:41:10;101077.28;;;10.44;92.81
36380;BME280;22411;53.016;18.632;2023-05-10T05:43:36;101074.03;;;10.55;88.76
36380;BME280;22411;53.016;18.632;2023-05-10T05:46:02;101073.97;;;10.70;87.64
36380;BME280;22411;53.016;18.632;2023-05-10T05:48:30;101068.13;;;10.81;84.10
36380;BME280;22411;53.016;18.632;2023-05-10T05:50:57;101065.78;;;10.91;90.84
36380;BME280;22411;53.016;18.632;2023-05-10T05:53:23;101076.44;;;11.00;85.24
36380;BME280;22411;53.016;18.632;2023-05-10T05:55:54;101063.66;;;11.12;87.28
36380;BME280;22411;53.016;18.632;2023-05-10T05:58:21;101069.09;;;11.21;85.40
36380;BME280;22411;53.016;18.632;2023-05-10T06:00:48;101078.63;;;11.35;80.58
36380;BME280;22411;53.016;18.632;2023-05-10T06:03:14;101074.59;;;11.44;80.93
36380;BME280;22411;53.016;18.632;2023-05-10T06:05:40;101078.28;;;11.54;76.87
36380;BME280;22411;53.016;18.632;2023-05-10T06:08:07;101075.94;;;11.64;72.94
36380;BME280;22411;53.016;18.632;2023-05-10T06:10:33;101077.44;;;11.68;73.10
36380;BME280;22411;53.016;18.632;2023-05-10T06:12:59;101079.53;;;11.75;76.12
36380;BME280;22411;53.016;18.632;2023-05-10T06:15:25;101078.03;;;11.86;76.26
36380;BME280;22411;53.016;18.632;2023-05-10T06:17:52;101072.53;;;11.90;69.23
36380;BME280;22411;53.016;18.632;2023-05-10T06:20:18;101065.41;;;11.94;69.99
36380;BME280;22411;53.016;18.632;2023-05-10T06:22:44;101075.81;;;12.07;73.90
36380;BME280;22411;53.016;18.632;2023-05-10T06:25:11;101065.53;;;12.05;63.34
36380;BME280;22411;53.016;18.632;2023-05-10T06:27:37;101071.78;;;12.15;65.59
36380;BME280;22411;53.016;18.632;2023-05-10T06:30:04;101064.41;;;12.22;60.71
36380;BME280;22411;53.016;18.632;2023-05-10T06:32:32;101072.53;;;12.30;62.09
36380;BME280;22411;53.016;18.632;2023-05-10T06:34:58;101059.94;;;12.37;60.09
36380;BME280;22411;53.016;18.632;2023-05-10T06:37:24;101074.84;;;12.47;57.47
36380;BME280;22411;53.016;18.632;2023-05-10T06:39:50;101066.41;;;12.56;56.14
36380;BME280;22411;53.016;18.632;2023-05-10T06:42:17;101060.59;;;12.66;55.52
36380;BME280;22411;53.016;18.632;2023-05-10T06:44:44;101057.25;;;12.64;54.94
36380;BME280;22411;53.016;18.632;2023-05-10T06:47:09;101062.34;;;12.78;56.58
36380;BME280;22411;53.016;18.632;2023-05-10T06:49:36;101071.38;;;12.85;53.11
36380;BME280;22411;53.016;18.632;2023-05-10T06:52:03;101060.25;;;12.96;53.19
36380;BME280;22411;53.016;18.632;2023-05-10T06:54:30;101068.34;;;13.04;49.71
36380;BME280;22411;53.016;18.632;2023-05-10T06:56:56;101061.06;;;13.09;50.58
36380;BME280;22411;53.016;18.632;2023-05-10T06:59:23;101058.13;;;13.14;49.86
36380;BME280;22411;53.016;18.632;2023-05-10T07:01:49;101062.81;;;13.21;50.97
36380;BME280;22411;53.016;18.632;2023-05-10T07:04:16;101069.75;;;13.33;51.12
36380;BME280;22411;53.016;18.632;2023-05-10T07:06:43;101043.41;;;13.38;48.46
36380;BME280;22411;53.016;18.632;2023-05-10T07:09:09;101066.63;;;13.41;49.21
36380;BME280;22411;53.016;18.632;2023-05-10T07:11:36;101055.56;;;13.50;51.53
36380;BME280;22411;53.016;18.632;2023-05-10T07:14:03;101070.78;;;13.68;51.39
36380;BME280;22411;53.016;18.632;2023-05-10T07:16:29;101050.94;;;13.78;49.63
36380;BME280;22411;53.016;18.632;2023-05-10T07:18:55;101068.19;;;13.68;48.00
36380;BME280;22411;53.016;18.632;2023-05-10T07:21:21;101070.47;;;13.72;49.41
36380;BME280;22411;53.016;18.632;2023-05-10T07:23:49;101063.97;;;13.78;49.45
36380;BME280;22411;53.016;18.632;2023-05-10T07:26:15;101066.00;;;13.85;48.51
36380;BME280;22411;53.016;18.632;2023-05-10T07:28:42;101067.00;;;13.96;47.43
36380;BME280;22411;53.016;18.632;2023-05-10T07:31:07;101060.63;;;14.00;48.32
36380;BME280;22411;53.016;18.632;2023-05-10T07:33:34;101063.72;;;14.05;46.98
36380;BME280;22411;53.016;18.632;2023-05-10T07:36:00;101066.19;;;14.06;48.29
36380;BME280;22411;53.016;18.632;2023-05-10T07:38:27;101076.44;;;14.21;48.23
36380;BME280;22411;53.016;18.632;2023-05-10T07:40:52;101071.25;;;14.32;50.58
36380;BME280;22411;53.016;18.632;2023-05-10T07:43:19;101062.56;;;14.55;46.67
36380;BME280;22411;53.016;18.632;2023-05-10T07:45:45;101058.19;;;14.56;45.11
36380;BME280;22411;53.016;18.632;2023-05-10T07:48:11;101066.56;;;14.48;45.98
36380;BME280;22411;53.016;18.632;2023-05-10T07:50:37;101067.78;;;14.55;47.89
36380;BME280;22411;53.016;18.632;2023-05-10T07:53:04;101065.53;;;14.73;49.00
36380;BME280;22411;53.016;18.632;2023-05-10T07:55:31;101053.78;;;14.90;47.58
36380;BME280;22411;53.016;18.632;2023-05-10T07:57:57;101046.22;;;14.87;45.31
36380;BME280;22411;53.016;18.632;2023-05-10T08:00:26;101067.53;;;14.92;45.67
36380;BME280;22411;53.016;18.632;2023-05-10T08:02:53;101069.91;;;15.06;46.12
36380;BME280;22411;53.016;18.632;2023-05-10T08:05:19;101052.22;;;15.10;45.21
36380;BME280;22411;53.016;18.632;2023-05-10T08:07:46;101070.97;;;15.15;45.60
36380;BME280;22411;53.016;18.632;2023-05-10T08:10:12;101057.19;;;15.35;46.37
36380;BME280;22411;53.016;18.632;2023-05-10T08:12:38;101059.03;;;15.56;46.41
36380;BME280;22411;53.016;18.632;2023-05-10T08:15:04;101065.63;;;15.71;46.43
36380;BME280;22411;53.016;18.632;2023-05-10T08:17:31;101055.03;;;15.84;46.12
36380;BME280;22411;53.016;18.632;2023-05-10T08:19:57;101061.72;;;15.77;43.36
36380;BME280;22411;53.016;18.632;2023-05-10T08:22:23;101050.03;;;15.81;42.54
36380;BME280;22411;53.016;18.632;2023-05-10T08:24:49;101052.25;;;15.64;42.20
36380;BME280;22411;53.016;18.632;2023-05-10T08:27:16;101050.41;;;15.76;43.57
36380;BME280;22411;53.016;18.632;2023-05-10T08:29:41;101056.81;;;15.83;43.34
36380;BME280;22411;53.016;18.632;2023-05-10T08:32:07;101045.41;;;16.05;43.56
36380;BME280;22411;53.016;18.632;2023-05-10T08:34:33;101055.41;;;16.00;41.88
36380;BME280;22411;53.016;18.632;2023-05-10T08:36:59;101064.69;;;16.04;41.23
36380;BME280;22411;53.016;18.632;2023-05-10T08:39:25;101059.06;;;16.09;40.56
36380;BME280;22411;53.016;18.632;2023-05-10T08:41:53;101050.63;;;16.05;41.22
36380;BME280;22411;53.016;18.632;2023-05-10T08:44:24;101052.94;;;16.19;40.28
36380;BME280;22411;53.016;18.632;2023-05-10T08:46:53;101067.38;;;16.35;40.12
36380;BME280;22411;53.016;18.632;2023-05-10T08:49:20;101058.63;;;16.45;40.19
36380;BME280;22411;53.016;18.632;2023-05-10T08:51:50;101049.03;;;16.56;39.67
36380;BME280;22411;53.016;18.632;2023-05-10T08:54:17;101058.63;;;16.55;39.91
36380;BME280;22411;53.016;18.632;2023-05-10T08:56:43;101053.81;;;16.71;39.30
36380;BME280;22411;53.016;18.632;2023-05-10T08:59:09;101059.47;;;16.77;39.17
36380;BME280;22411;53.016;18.632;2023-05-10T09:01:38;101054.72;;;16.70;38.90
36380;BME280;22411;53.016;18.632;2023-05-10T09:04:05;101056.59;;;16.80;39.23
36380;BME280;22411;53.016;18.632;2023-05-10T09:06:32;101057.66;;;17.17;39.32
36380;BME280;22411;53.016;18.632;2023-05-10T09:08:59;101052.31;;;17.19;37.75
36380;BME280;22411;53.016;18.632;2023-05-10T09:11:29;101054.94;;;17.29;38.12
36380;BME280;22411;53.016;18.632;2023-05-10T09:13:55;101050.28;;;17.42;38.50
36380;BME280;22411;53.016;18.632;2023-05-10T09:16:22;101050.13;;;17.43;38.20
36380;BME280;22411;53.016;18.632;2023-05-10T09:18:48;101055.25;;;17.55;37.92
36380;BME280;22411;53.016;18.632;2023-05-10T09:21:15;101050.84;;;17.65;38.09
36380;BME280;22411;53.016;18.632;2023-05-10T09:23:45;101049.66;;;17.88;38.39
36380;BME280;22411;53.016;18.632;2023-05-10T09:26:12;101041.75;;;18.08;37.01
36380;BME280;22411;53.016;18.632;2023-05-10T09:29:00;101057.78;;;18.05;37.50
36380;BME280;22411;53.016;18.632;2023-05-10T09:34:28;101054.13;;;18.35;36.68
36380;BME280;22411;53.016;18.632;2023-05-10T09:36:57;101054.81;;;18.37;35.82
36380;BME280;22411;53.016;18.632;2023-05-10T09:39:31;101052.88;;;18.39;35.63
36380;BME280;22411;53.016;18.632;2023-05-10T09:42:02;101049.56;;;18.37;36.74
36380;BME280;22411;53.016;18.632;2023-05-10T09:44:29;101042.28;;;18.31;37.27
36380;BME280;22411;53.016;18.632;2023-05-10T09:46:56;101043.91;;;18.41;36.69
36380;BME280;22411;53.016;18.632;2023-05-10T09:49:22;101032.88;;;18.28;36.47
36380;BME280;22411;53.016;18.632;2023-05-10T09:52:03;101047.56;;;18.58;35.98
36380;BME280;22411;53.016;18.632;2023-05-10T09:54:29;101034.22;;;18.89;36.65
36380;BME280;22411;53.016;18.632;2023-05-10T09:56:56;101042.56;;;18.65;35.54
36380;BME280;22411;53.016;18.632;2023-05-10T09:59:25;101027.25;;;18.60;35.25
36380;BME280;22411;53.016;18.632;2023-05-10T10:01:53;101034.41;;;18.21;34.44
36380;BME280;22411;53.016;18.632;2023-05-10T10:04:21;101026.00;;;18.17;33.91
36380;BME280;22411;53.016;18.632;2023-05-10T10:07:02;101035.47;;;18.38;35.24
36380;BME280;22411;53.016;18.632;2023-05-10T10:09:29;101029.28;;;18.66;33.96
36380;BME280;22411;53.016;18.632;2023-05-10T10:11:55;101028.88;;;18.71;33.25
36380;BME280;22411;53.016;18.632;2023-05-10T10:14:23;101021.00;;;18.71;33.46
36380;BME280;22411;53.016;18.632;2023-05-10T10:16:51;101015.25;;;19.13;35.09
36380;BME280;22411;53.016;18.632;2023-05-10T10:19:21;101028.59;;;19.47;34.21
36380;BME280;22411;53.016;18.632;2023-05-10T10:21:49;101024.53;;;19.52;33.85
36380;BME280;22411;53.016;18.632;2023-05-10T10:24:15;101021.16;;;19.42;33.11
36380;BME280;22411;53.016;18.632;2023-05-10T10:26:42;101022.19;;;19.49;33.65
36380;BME280;22411;53.016;18.632;2023-05-10T10:29:23;101018.47;;;19.70;35.04
36380;BME280;22411;53.016;18.632;2023-05-10T10:34:29;101006.03;;;19.98;32.98
36380;BME280;22411;53.016;18.632;2023-05-10T10:36:57;101017.44;;;20.32;31.93
36380;BME280;22411;53.016;18.632;2023-05-10T10:39:24;101001.84;;;19.87;32.22
36380;BME280;22411;53.016;18.632;2023-05-10T10:41:57;100998.59;;;19.67;32.76
36380;BME280;22411;53.016;18.632;2023-05-10T10:44:36;100984.03;;;19.81;32.94
36380;BME280;22411;53.016;18.632;2023-05-10T10:49:43;100997.34;;;19.26;33.04
36380;BME280;22411;53.016;18.632;2023-05-10T10:52:33;101018.84;;;19.57;33.00
36380;BME280;22411;53.016;18.632;2023-05-10T10:55:07;100996.00;;;19.75;32.04
36380;BME280;22411;53.016;18.632;2023-05-10T11:02:53;100982.22;;;20.25;31.33
36380;BME280;22411;53.016;18.632;2023-05-10T11:05:33;100992.09;;;20.31;32.16
36380;BME280;22411;53.016;18.632;2023-05-10T11:08:17;100998.81;;;20.52;31.61
36380;BME280;22411;53.016;18.632;2023-05-10T11:13:27;100988.28;;;21.02;30.22
36380;BME280;22411;53.016;18.632;2023-05-10T11:15:55;100997.53;;;21.06;30.92
36380;BME280;22411;53.016;18.632;2023-05-10T11:18:27;100986.81;;;21.08;30.66
36380;BME280;22411;53.016;18.632;2023-05-10T11:21:00;100992.53;;;20.87;31.16
36380;BME280;22411;53.016;18.632;2023-05-10T11:23:54;100995.50;;;20.50;30.40
36380;BME280;22411;53.016;18.632;2023-05-10T11:26:34;100985.88;;;20.67;30.31
36380;BME280;22411;53.016;18.632;2023-05-10T11:29:01;100963.78;;;21.10;30.29
36380;BME280;22411;53.016;18.632;2023-05-10T11:31:28;100980.03;;;20.89;31.31
36380;BME280;22411;53.016;18.632;2023-05-10T11:33:59;100979.47;;;20.69;31.13
36380;BME280;22411;53.016;18.632;2023-05-10T11:36:28;100970.81;;;20.93;31.11
36380;BME280;22411;53.016;18.632;2023-05-10T11:38:56;100961.63;;;21.05;30.40
36380;BME280;22411;53.016;18.632;2023-05-10T11:41:23;100975.03;;;20.35;31.57
36380;BME280;22411;53.016;18.632;2023-05-10T11:43:51;100975.44;;;20.49;31.02
36380;BME280;22411;53.016;18.632;2023-05-10T11:46:22;100965.00;;;19.87;30.89
36380;BME280;22411;53.016;18.632;2023-05-10T11:48:50;100965.44;;;20.34;31.70
36380;BME280;22411;53.016;18.632;2023-05-10T11:51:21;100977.59;;;20.61;31.30
36380;BME280;22411;53.016;18.632;2023-05-10T11:53:55;100979.41;;;21.11;31.15
36380;BME280;22411;53.016;18.632;2023-05-10T11:56:21;100981.53;;;21.00;29.41
36380;BME280;22411;53.016;18.632;2023-05-10T11:58:57;100952.66;;;20.74;30.49
36380;BME280;22411;53.016;18.632;2023-05-10T12:01:25;100976.03;;;20.43;30.25
36380;BME280;22411;53.016;18.632;2023-05-10T12:03:53;100969.06;;;20.59;31.42
36380;BME280;22411;53.016;18.632;2023-05-10T12:06:20;100979.69;;;20.84;29.76
36380;BME280;22411;53.016;18.632;2023-05-10T12:08:48;100967.03;;;20.96;30.85
36380;BME280;22411;53.016;18.632;2023-05-10T12:11:19;100964.72;;;20.84;29.99
36380;BME280;22411;53.016;18.632;2023-05-10T12:13:47;100968.94;;;20.69;30.62
36380;BME280;22411;53.016;18.632;2023-05-10T12:16:19;100965.03;;;20.89;29.89
36380;BME280;22411;53.016;18.632;2023-05-10T12:18:55;100962.38;;;20.81;29.56
36380;BME280;22411;53.016;18.632;2023-05-10T12:21:24;100973.00;;;21.14;29.89
36380;BME280;22411;53.016;18.632;2023-05-10T12:23:53;100957.88;;;21.40;29.51
36380;BME280;22411;53.016;18.632;2023-05-10T12:26:23;100965.16;;;21.38;29.48
36380;BME280;22411;53.016;18.632;2023-05-10T12:28:52;100977.03;;;21.43;29.12
36380;BME280;22411;53.016;18.632;2023-05-10T12:31:18;100969.56;;;21.30;29.24
36380;BME280;22411;53.016;18.632;2023-05-10T12:33:46;100963.81;;;21.51;29.74
36380;BME280;22411;53.016;18.632;2023-05-10T12:36:14;100955.41;;;21.39;29.77
36380;BME280;22411;53.016;18.632;2023-05-10T12:38:45;100971.06;;;21.32;29.63
36380;BME280;22411;53.016;18.632;2023-05-10T12:41:18;100965.31;;;21.37;29.04
36380;BME280;22411;53.016;18.632;2023-05-10T12:43:44;100969.94;;;21.43;29.10
36380;BME280;22411;53.016;18.632;2023-05-10T12:46:17;100967.41;;;21.17;29.59
36380;BME280;22411;53.016;18.632;2023-05-10T12:48:45;100962.94;;;21.01;29.92
36380;BME280;22411;53.016;18.632;2023-05-10T12:51:12;100960.09;;;20.86;29.41
36380;BME280;22411;53.016;18.632;2023-05-10T12:53:41;100968.34;;;20.83;29.29
36380;BME280;22411;53.016;18.632;2023-05-10T12:56:07;100973.06;;;21.30;28.84
36380;BME280;22411;53.016;18.632;2023-05-10T12:58:34;100966.06;;;21.05;28.80
36380;BME280;22411;53.016;18.632;2023-05-10T13:01:02;100960.22;;;21.44;29.13
36380;BME280;22411;53.016;18.632;2023-05-10T13:03:29;100953.56;;;22.05;28.91
36380;BME280;22411;53.016;18.632;2023-05-10T13:05:55;100949.16;;;21.40;28.86
36380;BME280;22411;53.016;18.632;2023-05-10T13:08:21;100947.03;;;21.52;29.12
36380;BME280;22411;53.016;18.632;2023-05-10T13:10:47;100960.09;;;20.78;28.19
36380;BME280;22411;53.016;18.632;2023-05-10T13:13:15;100958.31;;;20.95;29.01
36380;BME280;22411;53.016;18.632;2023-05-10T13:15:41;100955.94;;;21.43;28.65
36380;BME280;22411;53.016;18.632;2023-05-10T13:18:08;100951.00;;;21.48;28.35